createdAt,value
2022-10-09T00:00:18.098Z,15.13
2022-10-09T00:02:49.590Z,14.90
2022-10-09T00:05:19.626Z,14.89
2022-10-09T00:07:51.844Z,14.99
2022-10-09T00:10:22.595Z,15.17
2022-10-09T00:12:54.633Z,15.57
2022-10-09T00:15:24.510Z,15.41
2022-10-09T00:17:57.568Z,15.28
2022-10-09T00:20:26.186Z,15.40
2022-10-09T00:23:01.358Z,15.33
2022-10-09T00:25:33.883Z,15.62
2022-10-09T00:28:11.306Z,15.40
2022-10-09T00:30:40.743Z,15.76
2022-10-09T00:33:13.972Z,15.48
2022-10-09T00:35:44.193Z,15.69
2022-10-09T00:38:15.618Z,15.70
2022-10-09T00:40:44.604Z,15.52
2022-10-09T00:43:18.606Z,15.73
2022-10-09T00:45:56.827Z,15.77
2022-10-09T00:48:28.134Z,15.45
2022-10-09T00:50:59.843Z,15.65
2022-10-09T00:53:31.327Z,15.54
2022-10-09T00:56:00.946Z,15.16
2022-10-09T00:58:31.376Z,15.20
2022-10-09T01:01:01.608Z,15.42
2022-10-09T01:03:32.462Z,15.13
2022-10-09T01:06:20.345Z,15.43
2022-10-09T01:08:57.414Z,15.45
2022-10-09T01:11:40.135Z,15.48
2022-10-09T01:14:17.411Z,15.25
2022-10-09T01:17:16.556Z,15.33
2022-10-09T01:20:04.515Z,15.20
2022-10-09T01:22:43.815Z,15.20
2022-10-09T01:25:32.739Z,15.08
2022-10-09T01:28:04.165Z,15.05
2022-10-09T01:30:35.835Z,14.91
2022-10-09T01:33:06.815Z,15.10
2022-10-09T01:35:39.480Z,14.82
2022-10-09T01:38:09.134Z,14.63
2022-10-09T01:40:40.448Z,14.51
2022-10-09T01:43:10.573Z,14.63
2022-10-09T01:45:44.062Z,14.55
2022-10-09T01:48:24.471Z,14.80
2022-10-09T01:50:58.998Z,15.02
2022-10-09T01:53:32.825Z,15.12
2022-10-09T01:56:14.768Z,14.96
2022-10-09T01:58:53.096Z,14.97
2022-10-09T02:01:24.938Z,15.13
2022-10-09T02:03:55.337Z,15.24
2022-10-09T02:06:27.590Z,15.14
2022-10-09T02:08:56.578Z,15.07
2022-10-09T02:11:34.988Z,15.42
2022-10-09T02:14:03.583Z,15.14
2022-10-09T02:16:42.388Z,15.16
2022-10-09T02:19:36.286Z,15.45
2022-10-09T02:22:15.685Z,15.31
2022-10-09T02:24:44.294Z,14.83
2022-10-09T02:27:12.747Z,15.15
2022-10-09T02:29:42.103Z,15.08
2022-10-09T02:32:10.364Z,14.99
2022-10-09T02:34:38.775Z,15.29
2022-10-09T02:37:07.237Z,15.26
2022-10-09T02:39:37.001Z,15.31
2022-10-09T02:42:06.608Z,15.40
2022-10-09T02:44:34.413Z,15.03
2022-10-09T02:47:03.823Z,15.49
2022-10-09T02:49:31.813Z,15.30
2022-10-09T02:51:59.683Z,15.28
2022-10-09T02:54:33.126Z,15.49
2022-10-09T02:57:01.064Z,15.72
2022-10-09T02:59:29.298Z,15.55
2022-10-09T03:01:58.765Z,15.64
2022-10-09T03:04:26.821Z,15.68
2022-10-09T03:06:57.027Z,15.44
2022-10-09T03:09:29.155Z,15.70
2022-10-09T03:11:59.944Z,15.27
2022-10-09T03:14:28.369Z,15.23
2022-10-09T03:16:56.266Z,15.12
2022-10-09T03:19:24.079Z,14.68
2022-10-09T03:21:52.779Z,15.33
2022-10-09T03:24:20.723Z,15.23
2022-10-09T03:26:48.704Z,15.32
2022-10-09T03:29:18.859Z,15.28
2022-10-09T03:31:52.209Z,15.33
2022-10-09T03:34:22.233Z,15.58
2022-10-09T03:36:50.433Z,15.79
2022-10-09T03:39:19.171Z,15.88
2022-10-09T03:41:48.134Z,15.92
2022-10-09T03:44:17.661Z,15.60
2022-10-09T03:46:52.857Z,15.77
2022-10-09T03:49:22.122Z,15.86
2022-10-09T03:51:51.786Z,16.24
2022-10-09T03:54:20.287Z,16.11
2022-10-09T03:56:48.104Z,16.16
2022-10-09T03:59:17.120Z,16.20
2022-10-09T04:01:45.669Z,16.01
2022-10-09T04:04:14.378Z,16.20
2022-10-09T04:06:43.340Z,16.29
2022-10-09T04:09:11.485Z,16.45
2022-10-09T04:11:39.498Z,15.98
2022-10-09T04:14:07.768Z,16.23
2022-10-09T04:16:35.789Z,16.13
2022-10-09T04:19:06.117Z,16.21
2022-10-09T04:21:35.893Z,15.86
2022-10-09T04:24:08.551Z,16.32
2022-10-09T04:26:37.155Z,16.29
2022-10-09T04:29:05.024Z,15.97
2022-10-09T04:31:34.768Z,16.34
2022-10-09T04:34:03.110Z,16.31
2022-10-09T04:36:32.313Z,16.25
2022-10-09T04:38:59.801Z,16.31
2022-10-09T04:41:29.216Z,16.30
2022-10-09T04:43:58.736Z,16.28
2022-10-09T04:46:27.002Z,16.24
2022-10-09T04:48:54.614Z,16.05
2022-10-09T04:51:22.379Z,15.86
2022-10-09T04:53:50.019Z,16.26
2022-10-09T04:56:20.025Z,16.14
2022-10-09T04:58:50.072Z,16.17
2022-10-09T05:01:23.654Z,16.27
2022-10-09T05:03:53.994Z,16.36
2022-10-09T05:06:23.611Z,16.39
2022-10-09T05:08:52.388Z,16.26
2022-10-09T05:11:25.383Z,16.51
2022-10-09T05:13:55.495Z,16.43
2022-10-09T05:16:28.865Z,16.41
2022-10-09T05:18:58.663Z,16.36
2022-10-09T05:21:27.617Z,16.18
2022-10-09T05:23:56.591Z,16.40
2022-10-09T05:26:25.616Z,16.37
2022-10-09T05:28:54.636Z,16.39
2022-10-09T05:31:28.433Z,16.19
2022-10-09T05:34:00.177Z,16.07
2022-10-09T05:36:28.591Z,16.03
2022-10-09T05:38:57.908Z,16.06
2022-10-09T05:41:26.052Z,16.34
2022-10-09T05:43:55.033Z,16.42
2022-10-09T05:46:24.773Z,16.61
2022-10-09T05:49:05.599Z,16.31
2022-10-09T05:51:36.583Z,16.51
2022-10-09T05:54:06.768Z,16.74
2022-10-09T05:56:38.008Z,16.86
2022-10-09T05:59:07.788Z,16.62
2022-10-09T06:01:42.734Z,16.75
2022-10-09T06:04:17.265Z,16.97
2022-10-09T06:06:48.722Z,16.87
2022-10-09T06:09:21.820Z,17.18
2022-10-09T06:11:51.079Z,17.19
2022-10-09T06:14:22.284Z,17.22
2022-10-09T06:16:51.222Z,17.21
2022-10-09T06:19:23.069Z,17.27
2022-10-09T06:21:51.991Z,17.22
2022-10-09T06:24:28.375Z,17.05
2022-10-09T06:26:57.723Z,17.10
2022-10-09T06:29:27.488Z,16.80
2022-10-09T06:31:55.996Z,16.73
2022-10-09T06:34:23.981Z,16.99
2022-10-09T06:36:52.522Z,17.15
2022-10-09T06:39:21.176Z,17.00
2022-10-09T06:41:49.209Z,17.27
2022-10-09T06:44:24.290Z,17.36
2022-10-09T06:46:52.129Z,17.36
2022-10-09T06:49:24.285Z,17.50
2022-10-09T06:51:52.346Z,17.46
2022-10-09T06:54:20.545Z,17.67
2022-10-09T06:56:48.506Z,17.84
2022-10-09T06:59:18.304Z,17.79
2022-10-09T07:01:47.878Z,17.95
2022-10-09T07:04:18.235Z,18.09
2022-10-09T07:06:48.295Z,18.00
2022-10-09T07:09:16.890Z,18.26
2022-10-09T07:11:49.263Z,18.32
2022-10-09T07:14:18.145Z,18.56
2022-10-09T07:16:48.720Z,18.71
2022-10-09T07:19:17.806Z,18.93
2022-10-09T07:21:48.807Z,19.09
2022-10-09T07:24:18.255Z,19.27
2022-10-09T07:26:47.610Z,19.13
2022-10-09T07:29:17.159Z,19.34
2022-10-09T07:31:45.727Z,19.66
2022-10-09T07:34:16.061Z,19.84
2022-10-09T07:36:44.340Z,19.76
2022-10-09T07:39:12.218Z,19.68
2022-10-09T07:41:41.124Z,19.77
2022-10-09T07:44:13.574Z,20.00
2022-10-09T07:46:41.880Z,19.91
2022-10-09T07:49:10.608Z,20.01
2022-10-09T07:51:38.593Z,20.15
2022-10-09T07:54:09.288Z,20.36
2022-10-09T07:56:38.988Z,20.34
2022-10-09T07:59:11.087Z,20.45
2022-10-09T08:01:41.040Z,20.47
2022-10-09T08:04:09.854Z,19.74
2022-10-09T08:06:38.595Z,20.05
2022-10-09T08:09:07.907Z,20.30
2022-10-09T08:11:40.844Z,20.10
2022-10-09T08:14:18.079Z,20.41
2022-10-09T08:16:49.562Z,20.92
2022-10-09T08:19:17.735Z,21.03
2022-10-09T08:21:45.588Z,20.74
2022-10-09T08:24:14.528Z,21.11
2022-10-09T08:26:44.394Z,21.23
2022-10-09T08:29:13.980Z,20.66
2022-10-09T08:31:42.652Z,21.28
2022-10-09T08:34:12.148Z,21.56
2022-10-09T08:36:40.217Z,21.66
2022-10-09T08:39:10.414Z,21.84
2022-10-09T08:41:54.886Z,22.23
2022-10-09T08:44:39.625Z,22.29
2022-10-09T08:47:37.516Z,22.50
2022-10-09T08:50:10.492Z,22.56
2022-10-09T08:52:57.555Z,22.78
2022-10-09T08:55:31.846Z,22.78
2022-10-09T08:58:04.743Z,22.88
2022-10-09T09:00:47.023Z,22.93
2022-10-09T09:03:34.165Z,22.78
2022-10-09T09:06:24.421Z,23.00
2022-10-09T09:09:02.083Z,23.15
2022-10-09T09:11:59.778Z,23.07
2022-10-09T09:14:58.277Z,23.14
2022-10-09T09:17:35.774Z,23.33
2022-10-09T09:20:11.379Z,23.40
2022-10-09T09:22:46.926Z,23.68
2022-10-09T09:25:21.950Z,23.46
2022-10-09T09:27:58.537Z,23.51
2022-10-09T09:30:36.028Z,23.30
2022-10-09T09:33:26.475Z,23.74
2022-10-09T09:36:09.428Z,23.06
2022-10-09T09:38:54.181Z,23.58
2022-10-09T09:41:26.310Z,24.03
2022-10-09T09:43:57.016Z,24.25
2022-10-09T09:46:29.575Z,24.40
2022-10-09T09:48:59.848Z,24.49
2022-10-09T09:51:32.126Z,24.40
2022-10-09T09:54:07.527Z,24.64
2022-10-09T09:57:07.058Z,24.67
2022-10-09T09:59:36.363Z,24.34
2022-10-09T10:02:11.790Z,24.31
2022-10-09T10:04:52.677Z,24.43
2022-10-09T10:07:35.614Z,24.25
2022-10-09T10:10:19.758Z,24.37
2022-10-09T10:12:55.360Z,24.33
2022-10-09T10:15:28.679Z,24.24
2022-10-09T10:18:00.437Z,24.01
2022-10-09T10:20:32.189Z,23.92
2022-10-09T10:23:00.437Z,24.51
2022-10-09T10:25:32.538Z,24.51
2022-10-09T10:28:15.670Z,24.48
2022-10-09T10:30:44.546Z,24.43
2022-10-09T10:33:23.097Z,24.53
2022-10-09T10:35:53.404Z,24.51
2022-10-09T10:38:38.951Z,24.49
2022-10-09T10:41:37.366Z,24.59
2022-10-09T10:44:23.552Z,24.51
2022-10-09T10:46:55.359Z,24.60
2022-10-09T10:49:23.570Z,24.03
2022-10-09T10:52:14.836Z,24.17
2022-10-09T10:55:08.818Z,24.01
2022-10-09T10:57:56.590Z,24.20
2022-10-09T11:00:26.543Z,24.21
2022-10-09T11:03:04.097Z,24.01
2022-10-09T11:06:07.525Z,24.21
2022-10-09T11:08:53.112Z,24.32
2022-10-09T11:11:33.717Z,24.37
2022-10-09T11:14:08.083Z,24.40
2022-10-09T11:16:44.446Z,24.05
2022-10-09T11:19:25.885Z,24.30
2022-10-09T11:22:00.651Z,24.40
2022-10-09T11:24:40.822Z,24.50
2022-10-09T11:27:19.454Z,24.31
2022-10-09T11:29:59.430Z,24.41
2022-10-09T11:35:12.483Z,24.29
2022-10-09T11:37:42.431Z,24.26
2022-10-09T11:40:20.556Z,24.71
2022-10-09T11:43:02.303Z,24.66
2022-10-09T11:45:50.324Z,24.49
2022-10-09T11:48:45.586Z,24.54
2022-10-09T11:51:23.215Z,24.48
2022-10-09T11:53:52.658Z,24.50
2022-10-09T11:56:27.073Z,24.84
2022-10-09T11:59:06.698Z,25.07
2022-10-09T12:01:37.689Z,25.08
2022-10-09T12:04:32.338Z,24.68
2022-10-09T12:07:12.677Z,24.86
2022-10-09T12:09:45.491Z,24.87
2022-10-09T12:12:16.468Z,24.84
2022-10-09T12:14:47.707Z,24.99
2022-10-09T12:17:35.898Z,25.01
2022-10-09T12:20:09.301Z,24.73
2022-10-09T12:22:41.670Z,24.93
2022-10-09T12:25:32.755Z,25.11
2022-10-09T12:28:00.694Z,24.93
2022-10-09T12:30:35.739Z,24.39
2022-10-09T12:33:21.942Z,24.54
2022-10-09T12:36:00.775Z,24.26
2022-10-09T12:38:31.896Z,24.40
2022-10-09T12:41:04.822Z,24.18
2022-10-09T12:43:33.972Z,24.56
2022-10-09T12:46:03.202Z,24.78
2022-10-09T12:48:37.902Z,24.71
2022-10-09T12:51:21.920Z,24.37
2022-10-09T12:53:52.103Z,24.30
2022-10-09T12:56:23.649Z,24.84
2022-10-09T12:58:54.748Z,24.66
2022-10-09T13:01:25.437Z,24.36
2022-10-09T13:03:59.156Z,24.96
2022-10-09T13:06:28.901Z,24.51
2022-10-09T13:09:02.389Z,24.57
2022-10-09T13:11:41.928Z,24.46
2022-10-09T13:14:27.454Z,24.49
2022-10-09T13:16:56.538Z,24.67
2022-10-09T13:19:28.951Z,24.72
2022-10-09T13:22:14.393Z,24.49
2022-10-09T13:24:43.076Z,24.58
2022-10-09T13:27:12.081Z,24.50
2022-10-09T13:29:39.560Z,24.29
2022-10-09T13:32:12.591Z,24.20
2022-10-09T13:34:42.358Z,24.61
2022-10-09T13:37:14.929Z,24.67
2022-10-09T13:39:44.007Z,24.32
2022-10-09T13:42:13.966Z,24.37
2022-10-09T13:44:43.732Z,24.25
2022-10-09T13:47:13.605Z,24.59
2022-10-09T13:49:41.082Z,24.45
2022-10-09T13:52:10.401Z,24.18
2022-10-09T13:54:40.214Z,24.30
2022-10-09T13:57:09.663Z,23.94
2022-10-09T13:59:38.615Z,23.88
2022-10-09T14:02:06.554Z,23.81
2022-10-09T14:04:36.222Z,23.81
2022-10-09T14:07:04.568Z,24.18
2022-10-09T14:09:35.370Z,24.79
2022-10-09T14:12:03.790Z,24.96
2022-10-09T14:14:31.844Z,24.34
2022-10-09T14:17:00.133Z,24.23
2022-10-09T14:19:28.229Z,23.91
2022-10-09T14:21:56.696Z,23.82
2022-10-09T14:24:27.241Z,23.90
2022-10-09T14:26:55.303Z,24.07
2022-10-09T14:29:26.072Z,23.99
2022-10-09T14:31:53.992Z,23.78
2022-10-09T14:34:22.176Z,24.01
2022-10-09T14:36:52.496Z,23.50
2022-10-09T14:39:20.360Z,23.38
2022-10-09T14:41:49.274Z,23.28
2022-10-09T14:44:18.219Z,23.05
2022-10-09T14:46:47.887Z,23.22
2022-10-09T14:49:15.826Z,22.74
2022-10-09T14:51:44.690Z,23.12
2022-10-09T14:54:12.840Z,23.13
2022-10-09T14:56:42.266Z,23.24
2022-10-09T14:59:11.307Z,23.41
2022-10-09T15:01:39.263Z,23.44
2022-10-09T15:04:07.452Z,23.66
2022-10-09T15:06:36.163Z,23.45
2022-10-09T15:09:06.206Z,23.27
2022-10-09T15:11:35.911Z,22.41
2022-10-09T15:14:05.657Z,22.66
2022-10-09T15:16:34.605Z,22.51
2022-10-09T15:19:03.000Z,22.91
2022-10-09T15:21:34.519Z,23.09
2022-10-09T15:24:04.379Z,23.37
2022-10-09T15:26:33.641Z,23.08
2022-10-09T15:29:05.125Z,23.21
2022-10-09T15:31:43.959Z,22.81
2022-10-09T15:34:17.143Z,22.64
2022-10-09T15:36:46.337Z,22.01
2022-10-09T15:39:14.302Z,22.23
2022-10-09T15:41:43.295Z,22.31
2022-10-09T15:44:19.486Z,21.97
2022-10-09T15:46:48.912Z,22.17
2022-10-09T15:49:18.316Z,21.93
2022-10-09T15:51:49.562Z,21.57
2022-10-09T15:54:18.019Z,21.67
2022-10-09T15:56:47.784Z,21.42
2022-10-09T15:59:17.153Z,21.27
2022-10-09T16:01:46.279Z,21.47
2022-10-09T16:04:16.000Z,21.19
2022-10-09T16:06:44.674Z,21.22
2022-10-09T16:09:12.799Z,21.11
2022-10-09T16:11:42.253Z,21.16
2022-10-09T16:14:10.414Z,20.94
2022-10-09T16:16:37.902Z,20.73
2022-10-09T16:19:10.888Z,20.75
2022-10-09T16:21:38.917Z,20.90
2022-10-09T16:24:08.475Z,21.06
2022-10-09T16:26:37.355Z,21.15
2022-10-09T16:29:05.302Z,21.09
2022-10-09T16:31:37.403Z,20.96
2022-10-09T16:34:08.304Z,20.79
2022-10-09T16:36:39.741Z,20.93
2022-10-09T16:39:10.836Z,20.55
2022-10-09T16:41:41.969Z,20.46
2022-10-09T16:44:14.556Z,19.73
2022-10-09T16:46:42.610Z,20.18
2022-10-09T16:49:20.064Z,20.25
2022-10-09T16:51:51.256Z,20.39
2022-10-09T16:54:20.694Z,20.51
2022-10-09T16:56:48.880Z,20.04
2022-10-09T16:59:17.144Z,20.14
2022-10-09T17:01:48.020Z,20.08
2022-10-09T17:04:16.922Z,20.03
2022-10-09T17:06:46.590Z,20.33
2022-10-09T17:09:15.139Z,19.98
2022-10-09T17:11:44.180Z,19.94
2022-10-09T17:14:13.485Z,19.59
2022-10-09T17:16:42.878Z,19.73
2022-10-09T17:19:10.487Z,19.92
2022-10-09T17:21:39.526Z,19.66
2022-10-09T17:24:07.811Z,19.11
2022-10-09T17:26:35.676Z,19.17
2022-10-09T17:29:04.747Z,19.38
2022-10-09T17:31:33.031Z,18.59
2022-10-09T17:34:02.818Z,18.45
2022-10-09T17:36:37.661Z,18.58
2022-10-09T17:39:08.822Z,18.68
2022-10-09T17:41:37.623Z,18.30
2022-10-09T17:44:06.686Z,18.28
2022-10-09T17:46:34.908Z,18.12
2022-10-09T17:49:04.226Z,18.33
2022-10-09T17:51:39.014Z,18.77
2022-10-09T17:54:12.445Z,18.48
2022-10-09T17:56:41.248Z,18.43
2022-10-09T17:59:10.420Z,18.49
2022-10-09T18:01:40.068Z,18.67
2022-10-09T18:04:20.327Z,18.54
2022-10-09T18:06:51.455Z,18.73
2022-10-09T18:09:23.174Z,18.68
2022-10-09T18:11:51.453Z,18.69
2022-10-09T18:14:20.528Z,18.36
2022-10-09T18:16:56.185Z,18.30
2022-10-09T18:19:24.282Z,18.22
2022-10-09T18:21:52.063Z,18.01
2022-10-09T18:24:19.772Z,18.05
2022-10-09T18:26:47.652Z,17.89
2022-10-09T18:29:15.382Z,17.95
2022-10-09T18:31:44.446Z,17.85
2022-10-09T18:34:12.926Z,17.66
2022-10-09T18:36:41.719Z,18.04
2022-10-09T18:39:13.395Z,18.22
2022-10-09T18:41:43.358Z,17.84
2022-10-09T18:44:18.745Z,17.53
2022-10-09T18:46:51.307Z,17.28
2022-10-09T18:49:22.305Z,17.06
2022-10-09T18:51:52.276Z,17.02
2022-10-09T18:54:22.835Z,16.91
2022-10-09T18:56:53.551Z,16.66
2022-10-09T18:59:22.734Z,16.74
2022-10-09T19:01:51.998Z,16.63
2022-10-09T19:04:20.914Z,16.64
2022-10-09T19:06:49.826Z,16.81
2022-10-09T19:09:21.371Z,16.73
2022-10-09T19:11:50.146Z,16.52
2022-10-09T19:14:19.954Z,16.87
2022-10-09T19:16:49.667Z,16.40
2022-10-09T19:19:24.687Z,16.66
2022-10-09T19:21:53.613Z,16.72
2022-10-09T19:24:22.179Z,16.56
2022-10-09T19:26:51.318Z,16.35
2022-10-09T19:29:19.948Z,16.59
2022-10-09T19:31:48.175Z,16.55
2022-10-09T19:34:18.608Z,16.54
2022-10-09T19:36:50.098Z,16.33
2022-10-09T19:39:19.110Z,16.45
2022-10-09T19:41:51.308Z,16.29
2022-10-09T19:44:24.245Z,16.62
2022-10-09T19:46:53.383Z,16.68
2022-10-09T19:49:21.287Z,16.46
2022-10-09T19:51:50.714Z,16.57
2022-10-09T19:54:20.884Z,16.89
2022-10-09T19:56:50.078Z,16.96
2022-10-09T19:59:18.135Z,16.90
2022-10-09T20:01:46.425Z,17.00
2022-10-09T20:04:16.448Z,16.91
2022-10-09T20:06:44.813Z,16.98
2022-10-09T20:09:15.765Z,17.13
2022-10-09T20:11:45.629Z,17.22
2022-10-09T20:14:14.017Z,17.41
2022-10-09T20:16:42.794Z,17.36
2022-10-09T20:19:14.141Z,17.07
2022-10-09T20:21:44.414Z,17.09
2022-10-09T20:24:16.320Z,17.28
2022-10-09T20:26:46.526Z,17.15
2022-10-09T20:29:22.302Z,17.05
2022-10-09T20:31:51.592Z,16.73
2022-10-09T20:34:27.463Z,16.66
2022-10-09T20:36:58.552Z,16.63
2022-10-09T20:39:33.682Z,16.39
2022-10-09T20:42:04.898Z,16.69
2022-10-09T20:44:40.895Z,16.73
2022-10-09T20:47:14.398Z,16.67
2022-10-09T20:49:49.374Z,16.53
2022-10-09T20:52:18.749Z,16.70
2022-10-09T20:54:48.708Z,16.75
2022-10-09T20:57:20.025Z,16.87
2022-10-09T20:59:51.610Z,16.33
2022-10-09T21:02:20.716Z,16.12
2022-10-09T21:04:50.435Z,16.13
2022-10-09T21:07:18.299Z,16.07
2022-10-09T21:09:47.416Z,15.86
2022-10-09T21:12:16.554Z,15.64
2022-10-09T21:14:44.704Z,15.72
2022-10-09T21:17:12.754Z,15.69
2022-10-09T21:19:41.474Z,15.51
2022-10-09T21:22:10.776Z,15.35
2022-10-09T21:24:38.255Z,15.51
2022-10-09T21:27:06.707Z,15.91
2022-10-09T21:29:34.314Z,15.75
2022-10-09T21:32:02.838Z,15.87
2022-10-09T21:34:31.858Z,15.68
2022-10-09T21:39:48.803Z,15.87
2022-10-09T21:42:16.399Z,15.79
2022-10-09T21:44:45.243Z,15.61
2022-10-09T21:47:18.826Z,15.61
2022-10-09T21:49:47.092Z,15.58
2022-10-09T21:52:14.848Z,15.26
2022-10-09T21:54:42.460Z,15.25
2022-10-09T21:57:10.001Z,15.17
2022-10-09T21:59:38.783Z,15.29
2022-10-09T22:02:07.716Z,14.75
2022-10-09T22:04:40.430Z,15.22
2022-10-09T22:07:10.210Z,15.08
2022-10-09T22:09:39.829Z,14.86
2022-10-09T22:12:11.618Z,15.03
2022-10-09T22:14:45.784Z,14.83
2022-10-09T22:17:16.962Z,14.85
2022-10-09T22:19:48.423Z,14.76
2022-10-09T22:22:17.387Z,14.86
2022-10-09T22:24:48.630Z,15.16
2022-10-09T22:27:20.670Z,15.17
2022-10-09T22:29:49.966Z,14.86
2022-10-09T22:32:26.029Z,14.73
2022-10-09T22:34:58.984Z,14.45
2022-10-09T22:37:29.038Z,14.38
2022-10-09T22:39:59.416Z,14.11
2022-10-09T22:42:28.686Z,14.31
2022-10-09T22:44:58.978Z,14.13
2022-10-09T22:47:31.230Z,14.07
2022-10-09T22:50:02.370Z,14.07
2022-10-09T22:52:33.536Z,14.37
2022-10-09T22:55:05.025Z,14.29
2022-10-09T22:57:40.921Z,13.97
2022-10-09T23:00:18.049Z,14.31
2022-10-09T23:02:50.621Z,14.38
2022-10-09T23:05:24.545Z,14.44
2022-10-09T23:08:00.216Z,14.45
2022-10-09T23:10:30.715Z,14.26
2022-10-09T23:13:03.454Z,14.24
2022-10-09T23:15:35.908Z,14.10
2022-10-09T23:18:06.708Z,14.24
2022-10-09T23:20:39.126Z,13.87
2022-10-09T23:23:10.425Z,14.11
2022-10-09T23:25:41.748Z,13.67
2022-10-09T23:28:10.851Z,13.79
2022-10-09T23:30:39.411Z,13.89
2022-10-09T23:33:11.306Z,13.72
2022-10-09T23:35:43.131Z,13.74
2022-10-09T23:38:13.294Z,13.50
2022-10-09T23:40:43.798Z,13.72
2022-10-09T23:43:16.211Z,14.00
2022-10-09T23:45:47.728Z,13.84
2022-10-09T23:48:17.631Z,13.66
2022-10-09T23:50:50.292Z,13.74
2022-10-09T23:53:21.660Z,13.62
2022-10-09T23:55:51.321Z,13.79
2022-10-09T23:58:23.923Z,13.41
